Time;durP1;ratioP1;P1;durP2;ratioP2;P2;SDS_P1;SDS_P2;PMS_P1;PMS_P2;Temp;Humidity;BMP_temperature;BMP_pressure;BME280_temperature;BME280_humidity;BME280_pressure;Samples;Min_cycle;Max_cycle;Signal;HPM_P1;HPM_P2
2022/08/23 00:04:58;;;;;;;8.63;3.03;;;;;;;-147.53;100.00;57128.34;10520111;28;20040;-74
2022/08/23 00:10:14;;;;;;;10.65;2.88;;;;;;;-147.53;100.00;57128.34;10548887;28;20039;-73
2022/08/23 00:15:19;;;;;;;8.48;2.80;;;;;;;-147.53;100.00;57128.34;10544258;28;20040;-74
2022/08/23 00:20:20;;;;;;;8.15;2.72;;;;;;;-147.53;100.00;57128.34;10542743;28;20051;-74
2022/08/23 00:25:22;;;;;;;10.10;2.50;;;;;;;-147.53;100.00;57128.34;10547900;28;20043;-74
2022/08/23 00:30:24;;;;;;;6.47;2.42;;;;;;;-147.53;100.00;57128.34;10545640;28;20074;-73
2022/08/23 00:35:26;;;;;;;6.53;2.30;;;;;;;-147.53;100.00;57128.34;10513127;28;20135;-74
2022/08/23 00:40:28;;;;;;;5.47;2.30;;;;;;;-147.53;100.00;57128.34;10543276;28;20608;-73
2022/08/23 00:51:43;;;;;;;8.25;2.60;;;;;;;-147.53;100.00;57128.34;10545078;28;20141;-73
2022/08/23 00:56:56;;;;;;;8.63;2.47;;;;;;;-147.53;100.00;57128.34;10540882;28;20098;-73
2022/08/23 01:01:59;;;;;;;5.53;2.10;;;;;;;-147.53;100.00;57128.34;10523501;28;20112;-74
2022/08/23 01:07:11;;;;;;;9.00;2.13;;;;;;;-147.53;100.00;57128.34;10523505;28;20059;-73
2022/08/23 01:12:18;;;;;;;5.00;2.00;;;;;;;-147.53;100.00;57128.34;10540901;28;20042;-73
2022/08/23 01:17:39;;;;;;;9.27;2.20;;;;;;;-147.53;100.00;57128.34;10540776;28;20155;-73
2022/08/23 01:22:49;;;;;;;7.25;1.90;;;;;;;-147.53;100.00;57128.34;10519478;28;20097;-73
2022/08/23 01:27:51;;;;;;;9.07;2.40;;;;;;;-147.53;100.00;57128.34;10499294;28;20522;-73
2022/08/23 01:32:57;;;;;;;12.25;2.20;;;;;;;-147.53;100.00;57128.34;10530055;28;20133;-71
2022/08/23 01:37:59;;;;;;;7.28;2.17;;;;;;;-147.53;100.00;57128.34;10521426;28;20050;-73
2022/08/23 01:43:01;;;;;;;6.63;2.03;;;;;;;-147.53;100.00;57128.34;10506596;28;20047;-73
2022/08/23 01:48:03;;;;;;;6.45;2.13;;;;;;;-147.53;100.00;57128.34;10511107;28;20139;-73
2022/08/23 01:53:07;;;;;;;10.93;2.25;;;;;;;-147.53;100.00;57128.34;10524122;28;20570;-74
2022/08/23 01:58:09;;;;;;;6.18;2.05;;;;;;;-147.53;100.00;57128.34;10516504;28;20133;-73
2022/08/23 02:03:11;;;;;;;5.00;1.90;;;;;;;-147.53;100.00;57128.34;10522587;28;20392;-73
2022/08/23 02:13:35;;;;;;;7.18;2.55;;;;;;;-147.53;100.00;57128.34;10540416;28;20437;-74
2022/08/23 02:18:37;;;;;;;6.88;2.38;;;;;;;-147.53;100.00;57128.34;10532645;28;20452;-73
2022/08/23 02:23:39;;;;;;;5.57;2.10;;;;;;;-147.53;100.00;57128.34;10551059;28;20255;-73
2022/08/23 02:28:41;;;;;;;8.05;2.28;;;;;;;-147.53;100.00;57128.34;10533249;28;20078;-73
2022/08/23 02:33:42;;;;;;;10.63;2.42;;;;;;;-147.53;100.00;57128.34;10532130;28;20043;-73
2022/08/23 02:38:45;;;;;;;7.18;2.28;;;;;;;-147.53;100.00;57128.34;10528160;28;20047;-73
2022/08/23 02:43:49;;;;;;;7.20;2.30;;;;;;;-147.53;100.00;57128.34;10530956;28;20584;-73
2022/08/23 02:48:52;;;;;;;6.47;2.33;;;;;;;-147.53;100.00;57128.34;10534963;28;20040;-73
2022/08/23 02:53:53;;;;;;;7.70;3.08;;;;;;;-147.53;100.00;57128.34;10530717;28;20036;-73
2022/08/23 02:58:56;;;;;;;7.35;2.45;;;;;;;-147.53;100.00;57128.34;10534511;28;20079;-73
2022/08/23 03:03:59;;;;;;;5.03;2.28;;;;;;;-147.53;100.00;57128.34;10519572;28;20503;-73
2022/08/23 03:09:05;;;;;;;5.47;2.33;;;;;;;-147.53;100.00;57128.34;10544405;28;20043;-73
2022/08/23 03:14:07;;;;;;;6.53;2.92;;;;;;;-147.53;100.00;57128.34;10547494;28;20043;-73
2022/08/23 03:19:08;;;;;;;7.05;2.72;;;;;;;-147.53;100.00;57128.34;10541563;28;20411;-73
2022/08/23 03:24:10;;;;;;;6.90;2.72;;;;;;;-147.53;100.00;57128.34;10524045;28;20041;-74
2022/08/23 03:29:13;;;;;;;6.38;2.88;;;;;;;-147.53;100.00;57128.34;10532718;28;20051;-74
2022/08/23 03:34:35;;;;;;;6.40;2.88;;;;;;;-147.53;100.00;57128.34;10544814;28;20040;-73
2022/08/23 03:39:39;;;;;;;5.95;2.70;;;;;;;-147.53;100.00;57128.34;10532401;28;20048;-73
2022/08/23 03:44:41;;;;;;;6.78;2.95;;;;;;;-147.53;100.00;57128.34;10523689;28;20051;-73
2022/08/23 03:49:43;;;;;;;9.52;3.13;;;;;;;-147.53;100.00;57128.34;10525825;28;20079;-74
2022/08/23 03:54:44;;;;;;;6.13;2.90;;;;;;;-147.53;100.00;57128.34;10529442;28;20151;-73
2022/08/23 03:59:47;;;;;;;7.03;3.13;;;;;;;-147.53;100.00;57128.34;10528452;28;20526;-73
2022/08/23 04:04:49;;;;;;;8.93;2.90;;;;;;;-147.53;100.00;57128.34;10509503;28;20036;-74
2022/08/23 04:09:50;;;;;;;7.90;3.00;;;;;;;-147.53;100.00;57128.34;10548711;28;20052;-73
2022/08/23 04:14:58;;;;;;;10.65;3.35;;;;;;;-147.53;100.00;57128.34;10526662;28;20040;-73
2022/08/23 04:20:00;;;;;;;15.07;3.17;;;;;;;-147.53;100.00;57128.34;10524134;28;20131;-73
2022/08/23 04:25:04;;;;;;;9.57;4.10;;;;;;;-147.53;100.00;57128.34;10522974;28;20036;-73
2022/08/23 04:30:25;;;;;;;9.07;3.10;;;;;;;-147.53;100.00;57128.34;10527867;28;20055;-74
2022/08/23 04:35:27;;;;;;;8.27;3.15;;;;;;;-147.53;100.00;57128.34;10520664;28;20643;-73
2022/08/23 04:45:50;;;;;;;7.90;3.25;;;;;;;-147.53;100.00;57128.34;10528240;28;20093;-73
2022/08/23 04:51:02;;;;;;;10.98;3.45;;;;;;;-147.53;100.00;57128.34;10528695;28;20048;-73
2022/08/23 04:56:09;;;;;;;6.68;3.42;;;;;;;-147.53;100.00;57128.34;10507820;28;20044;-73
2022/08/23 05:01:12;;;;;;;9.80;3.42;;;;;;;-147.53;100.00;57128.34;10527974;28;20455;-74
2022/08/23 05:06:14;;;;;;;6.93;3.05;;;;;;;-147.53;100.00;57128.34;10525486;28;20152;-74
2022/08/23 05:11:17;;;;;;;8.43;3.47;;;;;;;-147.53;100.00;57128.34;10528578;28;20570;-74
2022/08/23 05:16:20;;;;;;;8.15;3.60;;;;;;;-147.53;100.00;57128.34;10531139;28;20039;-74
2022/08/23 05:21:29;;;;;;;7.45;2.95;;;;;;;-147.53;100.00;57128.34;10522738;28;20043;-74
2022/08/23 05:26:31;;;;;;;8.18;3.42;;;;;;;-147.53;100.00;57128.34;10548631;28;20498;-73
2022/08/23 05:31:33;;;;;;;7.55;3.78;;;;;;;-147.53;100.00;57128.34;10541277;28;20071;-72
2022/08/23 05:36:37;;;;;;;7.28;3.13;;;;;;;-147.53;100.00;57128.34;10522443;28;20040;-73
2022/08/23 05:41:48;;;;;;;8.13;3.15;;;;;;;-147.53;100.00;57128.34;10544079;28;20051;-73
2022/08/23 05:46:50;;;;;;;6.35;2.80;;;;;;;-147.53;100.00;57128.34;10540971;28;20036;-74
2022/08/23 05:52:06;;;;;;;11.85;3.70;;;;;;;-147.53;100.00;57128.34;10519314;28;20044;-74
2022/08/23 05:57:10;;;;;;;8.40;3.45;;;;;;;-147.53;100.00;57128.34;10530148;28;20150;-73
2022/08/23 06:02:11;;;;;;;9.50;3.63;;;;;;;-147.53;100.00;57128.34;10542999;28;20089;-73
2022/08/23 06:07:13;;;;;;;7.45;2.97;;;;;;;-147.53;100.00;57128.34;10524703;28;20043;-75
2022/08/23 06:12:15;;;;;;;8.88;3.25;;;;;;;-147.53;100.00;57128.34;10537188;28;20043;-73
2022/08/23 06:17:17;;;;;;;13.32;2.97;;;;;;;-147.53;100.00;57128.34;10521626;28;20044;-73
2022/08/23 06:22:18;;;;;;;7.57;3.00;;;;;;;-147.53;100.00;57128.34;10524585;28;20074;-73
2022/08/23 06:27:21;;;;;;;10.10;3.80;;;;;;;-147.53;100.00;57128.34;10519619;28;20044;-73
2022/08/23 06:32:24;;;;;;;9.93;2.75;;;;;;;-147.53;100.00;57128.34;10503942;28;20132;-73
2022/08/23 06:37:45;;;;;;;7.00;2.65;;;;;;;-147.53;100.00;57128.34;10543442;28;20045;-74
2022/08/23 06:43:19;;;;;;;6.10;2.30;;;;;;;-147.53;100.00;57128.34;10541517;28;20036;-73
2022/08/23 06:48:50;;;;;;;5.70;2.63;;;;;;;-147.53;100.00;57128.34;10526099;28;20411;-73
2022/08/23 06:53:53;;;;;;;6.25;2.58;;;;;;;-147.53;100.00;57128.34;10532388;28;20044;-73
2022/08/23 06:59:15;;;;;;;7.07;2.65;;;;;;;-147.53;100.00;57128.34;10516190;28;20040;-73
2022/08/23 07:04:36;;;;;;;6.85;2.58;;;;;;;-147.53;100.00;57128.34;10514851;28;20036;-73
2022/08/23 07:09:48;;;;;;;5.70;2.30;;;;;;;-147.53;100.00;57128.34;10534055;28;20047;-73
2022/08/23 07:14:51;;;;;;;9.20;3.15;;;;;;;-147.53;100.00;57128.34;10528134;28;20044;-74
2022/08/23 07:19:53;;;;;;;6.97;2.30;;;;;;;-147.53;100.00;57128.34;10524309;28;20050;-74
2022/08/23 07:24:56;;;;;;;5.85;2.30;;;;;;;-147.53;100.00;57128.34;10531376;28;20071;-74
2022/08/23 07:29:58;;;;;;;10.95;2.92;;;;;;;-147.53;100.00;57128.34;10530705;28;20098;-73
2022/08/23 07:35:00;;;;;;;4.85;2.30;;;;;;;-147.53;100.00;57128.34;10528715;28;20044;-73
2022/08/23 07:40:07;;;;;;;14.82;2.65;;;;;;;-147.53;100.00;57128.34;10527497;28;20048;-73
2022/08/23 07:45:09;;;;;;;6.40;2.35;;;;;;;-147.53;100.00;57128.34;10524922;28;20489;-73
2022/08/23 07:50:14;;;;;;;7.22;2.05;;;;;;;-147.53;100.00;57128.34;10533813;28;20060;-73
2022/08/23 07:55:15;;;;;;;10.00;2.40;;;;;;;-147.53;100.00;57128.34;10526356;28;20051;-73
2022/08/23 08:00:41;;;;;;;9.50;2.75;;;;;;;-147.53;100.00;57128.34;10518854;28;20054;-73
2022/08/23 08:06:11;;;;;;;8.60;2.47;;;;;;;-147.53;100.00;57128.34;10517516;28;20139;-73
2022/08/23 08:11:19;;;;;;;7.88;2.30;;;;;;;-147.53;100.00;57128.34;10526761;28;20063;-73
2022/08/23 08:16:30;;;;;;;6.97;2.30;;;;;;;-147.53;100.00;57128.34;10544945;28;20445;-73
2022/08/23 08:21:33;;;;;;;9.25;2.20;;;;;;;-147.53;100.00;57128.34;10526363;28;20051;-73
2022/08/23 08:26:46;;;;;;;8.80;2.08;;;;;;;-147.53;100.00;57128.34;10492881;28;20131;-73
2022/08/23 08:31:49;;;;;;;9.38;2.10;;;;;;;-147.53;100.00;57128.34;10526412;28;20095;-73
2022/08/23 08:36:57;;;;;;;8.15;2.28;;;;;;;-147.53;100.00;57128.34;10525668;28;20042;-74
2022/08/23 08:42:22;;;;;;;6.30;2.10;;;;;;;-147.53;100.00;57128.34;10533531;28;20051;-73
2022/08/23 08:47:39;;;;;;;10.05;2.08;;;;;;;-147.53;100.00;57128.34;10546899;28;20410;-73
2022/08/23 08:52:46;;;;;;;7.00;2.00;;;;;;;-147.53;100.00;57128.34;10521615;28;20138;-73
2022/08/23 08:58:00;;;;;;;5.60;2.20;;;;;;;-147.53;100.00;57128.34;10529209;28;20132;-73
2022/08/23 09:03:12;;;;;;;5.90;1.80;;;;;;;-147.53;100.00;57128.34;10534709;28;20029;-73
2022/08/23 09:08:48;;;;;;;4.00;1.80;;;;;;;-147.53;100.00;57128.34;10522057;28;20043;-73
2022/08/23 09:13:58;;;;;;;8.20;1.95;;;;;;;-147.53;100.00;57128.34;10532704;28;20041;-74
2022/08/23 09:19:03;;;;;;;6.35;1.85;;;;;;;-147.53;100.00;57128.34;10518322;28;20051;-73
2022/08/23 09:24:06;;;;;;;9.82;2.30;;;;;;;-147.53;100.00;57128.34;10512300;28;20032;-73
2022/08/23 09:29:27;;;;;;;8.98;2.10;;;;;;;-147.53;100.00;57128.34;10528753;28;20063;-73
2022/08/23 09:34:29;;;;;;;8.32;2.20;;;;;;;-147.53;100.00;57128.34;10540969;28;20070;-73
2022/08/23 09:39:41;;;;;;;8.38;1.90;;;;;;;-147.53;100.00;57128.34;10529154;28;20047;-73
2022/08/23 09:44:48;;;;;;;5.97;1.70;;;;;;;-147.53;100.00;57128.34;10525515;28;20039;-74
2022/08/23 09:49:51;;;;;;;8.13;2.00;;;;;;;-147.53;100.00;57128.34;10518223;28;21664;-74
2022/08/23 09:54:59;;;;;;;6.80;1.65;;;;;;;-147.53;100.00;57128.34;10525377;28;20047;-73
2022/08/23 10:00:40;;;;;;;6.85;1.70;;;;;;;-147.53;100.00;57128.34;10498835;28;20036;-73
2022/08/23 10:05:49;;;;;;;7.15;2.00;;;;;;;-147.53;100.00;57128.34;10362518;28;20049;-73
2022/08/23 10:10:57;;;;;;;8.73;1.80;;;;;;;-147.53;100.00;57128.34;10493719;28;20498;-73
2022/08/23 10:16:30;;;;;;;7.18;2.10;;;;;;;-147.53;100.00;57128.34;10526175;28;20036;-74
2022/08/23 10:21:40;;;;;;;5.97;1.50;;;;;;;-147.53;100.00;57128.34;10549032;28;20050;-73
2022/08/23 10:29:35;;;;;;;6.88;1.65;;;;;;;-147.53;100.00;57128.34;10514227;28;20055;-73
2022/08/23 10:32:54;;;;;;;10.65;2.05;;;;;;;-147.53;100.00;57128.34;10517378;28;20044;-73
2022/08/23 10:38:34;;;;;;;4.85;1.58;;;;;;;-147.53;100.00;57128.34;10527515;28;20514;-73
2022/08/23 10:43:47;;;;;;;11.13;2.22;;;;;;;-147.53;100.00;57128.34;10516411;28;20063;-74
2022/08/23 10:48:55;;;;;;;4.63;2.00;;;;;;;-147.53;100.00;57128.34;10547304;28;20137;-74
2022/08/23 10:54:08;;;;;;;4.90;1.85;;;;;;;-147.53;100.00;57128.34;10531357;28;20043;-73
2022/08/23 10:59:17;;;;;;;6.15;1.65;;;;;;;-147.53;100.00;57128.34;10530519;28;20051;-73
2022/08/23 11:04:28;;;;;;;5.07;2.05;;;;;;;-147.53;100.00;57128.34;10548241;28;20024;-73
2022/08/23 11:10:04;;;;;;;4.55;1.83;;;;;;;-147.53;100.00;57128.34;10533847;28;20048;-73
2022/08/23 11:15:18;;;;;;;7.10;1.80;;;;;;;-147.53;100.00;57128.34;10525700;28;20567;-73
2022/08/23 11:20:49;;;;;;;7.82;1.85;;;;;;;-147.53;100.00;57128.34;10523459;28;20051;-72
2022/08/23 11:26:08;;;;;;;5.03;1.50;;;;;;;-147.53;100.00;57128.34;10511349;28;20046;-73
2022/08/23 11:31:10;;;;;;;7.30;1.67;;;;;;;-147.53;100.00;57128.34;10531693;28;20040;-73
2022/08/23 11:36:19;;;;;;;6.00;1.65;;;;;;;-147.53;100.00;57128.34;10535027;28;20040;-72
2022/08/23 11:41:25;;;;;;;4.15;1.70;;;;;;;-147.53;100.00;57128.34;10540776;28;20075;-71
2022/08/23 11:46:34;;;;;;;7.78;1.60;;;;;;;-147.53;100.00;57128.34;10546201;28;20028;-71
2022/08/23 11:52:10;;;;;;;5.03;1.80;;;;;;;-147.53;100.00;57128.34;10526184;28;20277;-72
2022/08/23 11:57:23;;;;;;;5.97;1.60;;;;;;;-147.53;100.00;57128.34;10536351;28;20028;-71
2022/08/23 12:02:34;;;;;;;3.58;1.40;;;;;;;-147.53;100.00;57128.34;10552493;28;20120;-72
2022/08/23 12:08:15;;;;;;;3.70;1.40;;;;;;;-147.53;100.00;57128.34;10541223;28;20108;-71
2022/08/23 12:13:20;;;;;;;6.30;1.88;;;;;;;-147.53;100.00;57128.34;10528546;28;20063;-72
2022/08/23 12:18:24;;;;;;;3.92;1.73;;;;;;;-147.53;100.00;57128.34;10520372;28;20054;-72
2022/08/23 12:23:27;;;;;;;6.50;1.60;;;;;;;-147.53;100.00;57128.34;10534708;28;20066;-71
2022/08/23 12:28:38;;;;;;;9.68;1.70;;;;;;;-147.53;100.00;57128.34;10540472;28;20570;-72
2022/08/23 12:34:02;;;;;;;8.00;1.88;;;;;;;-147.53;100.00;57128.34;10529062;28;20031;-72
2022/08/23 12:39:21;;;;;;;5.43;1.60;;;;;;;-147.53;100.00;57128.34;10543570;28;20048;-71
2022/08/23 12:44:28;;;;;;;;;;;;;;;-147.53;100.00;57128.34;10530494;28;20461;-72
2022/08/23 12:49:33;;;;;;;10.40;1.77;;;;;;;-147.53;100.00;57128.34;10522921;28;19946;-71
2022/08/23 12:54:40;;;;;;;3.63;1.70;;;;;;;-147.53;100.00;57128.34;10522587;28;20048;-72
2022/08/23 12:59:57;;;;;;;5.63;1.53;;;;;;;-147.53;100.00;57128.34;10532249;28;20051;-71
2022/08/23 13:05:39;;;;;;;8.07;1.63;;;;;;;-147.53;100.00;57128.34;10527557;28;20123;-71
2022/08/23 13:10:42;;;;;;;6.90;1.83;;;;;;;-147.53;100.00;57128.34;10542853;28;20039;-71
2022/08/23 13:15:47;;;;;;;5.35;1.73;;;;;;;-147.53;100.00;57128.34;10535148;28;20044;-72
2022/08/23 13:20:49;;;;;;;5.35;1.70;;;;;;;-147.53;100.00;57128.34;10530901;28;20046;-71
2022/08/23 13:25:50;;;;;;;5.63;1.60;;;;;;;-147.53;100.00;57128.34;10538252;28;20031;-71
2022/08/23 13:31:04;;;;;;;7.40;1.75;;;;;;;-147.53;100.00;57128.34;10548276;28;20040;-72
2022/08/23 13:36:19;;;;;;;5.60;1.70;;;;;;;-147.53;100.00;57128.34;10536330;28;20032;-70
2022/08/23 13:41:32;;;;;;;6.20;1.60;;;;;;;-147.53;100.00;57128.34;10539578;28;20040;-71
2022/08/23 13:46:45;;;;;;;6.50;1.63;;;;;;;-147.53;100.00;57128.34;10543140;28;20032;-71
2022/08/23 13:51:59;;;;;;;6.75;1.95;;;;;;;-147.53;100.00;57128.34;10536534;28;20056;-72
2022/08/23 13:57:21;;;;;;;5.65;1.80;;;;;;;-147.53;100.00;57128.34;10512607;28;20467;-72
2022/08/23 14:02:23;;;;;;;9.35;1.75;;;;;;;-147.53;100.00;57128.34;10503952;28;20113;-71
2022/08/23 14:07:26;;;;;;;5.97;1.73;;;;;;;-147.53;100.00;57128.34;10536021;28;20131;-72
2022/08/23 14:12:32;;;;;;;66.85;58.60;;;;;;;-147.53;100.00;57128.34;10545747;28;20032;-71
2022/08/23 14:17:44;;;;;;;1182.72;723.38;;;;;;;-147.53;100.00;57128.34;10552274;28;20044;-73
2022/08/23 14:22:45;;;;;;;195.75;178.50;;;;;;;-147.53;100.00;57128.34;10544675;28;20101;-76
2022/08/23 14:27:48;;;;;;;7.28;3.08;;;;;;;-147.53;100.00;57128.34;10552862;28;20066;-77
2022/08/23 14:32:49;;;;;;;5.00;2.22;;;;;;;-147.53;100.00;57128.34;10552420;28;20086;-75
2022/08/23 14:37:51;;;;;;;12.02;4.05;;;;;;;-147.53;100.00;57128.34;10553669;28;20418;-75
2022/08/23 14:43:09;;;;;;;4.47;1.80;;;;;;;-147.53;100.00;57128.34;10548553;28;20128;-76
2022/08/23 14:48:11;;;;;;;5.25;2.00;;;;;;;-147.53;100.00;57128.34;10547491;28;20047;-77
2022/08/23 14:53:16;;;;;;;6.20;2.40;;;;;;;-147.53;100.00;57128.34;10548674;28;20036;-71
2022/08/23 14:58:22;;;;;;;7.82;2.35;;;;;;;-147.53;100.00;57128.34;10547275;28;20036;-76
2022/08/23 15:03:25;;;;;;;9.07;2.78;;;;;;;-147.53;100.00;57128.34;10547379;28;20126;-73
2022/08/23 15:08:27;;;;;;;6.35;1.77;;;;;;;-147.53;100.00;57128.34;10533163;28;20425;-71
2022/08/23 15:13:28;;;;;;;5.57;2.17;;;;;;;-147.53;100.00;57128.34;10555137;28;20047;-73
2022/08/23 15:18:38;;;;;;;3.95;1.65;;;;;;;-147.53;100.00;57128.34;10545883;28;20120;-73
2022/08/23 15:23:41;;;;;;;7.45;1.90;;;;;;;-147.53;100.00;57128.34;10543861;28;20047;-74
2022/08/23 15:28:43;;;;;;;2.97;1.52;;;;;;;-147.53;100.00;57128.34;10551614;28;20043;-74
2022/08/23 15:33:44;;;;;;;4.75;1.58;;;;;;;-147.53;100.00;57128.34;10541646;28;20050;-74
2022/08/23 15:38:48;;;;;;;6.15;2.00;;;;;;;-147.53;100.00;57128.34;10551381;28;20039;-74
2022/08/23 15:43:49;;;;;;;9.57;1.80;;;;;;;-147.53;100.00;57128.34;10545996;28;20134;-74
2022/08/23 15:48:57;;;;;;;5.57;1.70;;;;;;;-147.53;100.00;57128.34;10546430;28;20062;-74
2022/08/23 15:53:58;;;;;;;;;;;;;;;-147.53;100.00;57128.34;10544772;28;20046;-73
2022/08/23 15:59:00;;;;;;;6.57;1.83;;;;;;;-147.53;100.00;57128.34;10539325;28;19926;-74
2022/08/23 16:04:02;;;;;;;4.35;1.60;;;;;;;-147.53;100.00;57128.34;10535940;28;20123;-74
2022/08/23 16:09:06;;;;;;;4.43;1.65;;;;;;;-147.53;100.00;57128.34;10551021;28;20047;-75
2022/08/23 16:14:07;;;;;;;9.05;1.70;;;;;;;-147.53;100.00;57128.34;10545235;28;20044;-75
2022/08/23 16:19:09;;;;;;;4.90;1.58;;;;;;;-147.53;100.00;57128.34;10549277;28;20043;-74
2022/08/23 16:24:11;;;;;;;5.28;1.58;;;;;;;-147.53;100.00;57128.34;10544612;28;20062;-75
2022/08/23 16:29:15;;;;;;;7.13;1.50;;;;;;;-147.53;100.00;57128.34;10544671;28;20415;-72
2022/08/23 16:34:18;;;;;;;4.63;1.40;;;;;;;-147.53;100.00;57128.34;10515923;28;20043;-72
2022/08/23 16:39:21;;;;;;;8.55;2.25;;;;;;;-147.53;100.00;57128.34;10535842;28;20047;-74
2022/08/23 16:44:23;;;;;;;6.55;1.70;;;;;;;-147.53;100.00;57128.34;10537901;28;20046;-75
2022/08/23 16:49:25;;;;;;;9.13;1.70;;;;;;;-147.53;100.00;57128.34;10544270;28;20039;-75
2022/08/23 16:54:27;;;;;;;3.25;1.38;;;;;;;-147.53;100.00;57128.34;10540813;28;20043;-76
2022/08/23 16:59:29;;;;;;;4.60;1.60;;;;;;;-147.53;100.00;57128.34;10524578;28;20043;-75
2022/08/23 17:04:31;;;;;;;5.75;1.42;;;;;;;-147.53;100.00;57128.34;10541290;28;20050;-72
2022/08/23 17:09:32;;;;;;;3.42;1.52;;;;;;;-147.53;100.00;57128.34;10542503;28;20412;-72
2022/08/23 17:14:34;;;;;;;4.20;1.40;;;;;;;-147.53;100.00;57128.34;10542914;28;20036;-73
2022/08/23 17:19:36;;;;;;;7.78;1.60;;;;;;;-147.53;100.00;57128.34;10541009;28;20048;-72
2022/08/23 17:24:37;;;;;;;2.67;1.42;;;;;;;-147.53;100.00;57128.34;10542359;28;20039;-72
2022/08/23 17:29:39;;;;;;;8.27;1.50;;;;;;;-147.53;100.00;57128.34;10528929;28;20040;-72
2022/08/23 17:34:43;;;;;;;7.63;2.10;;;;;;;-147.53;100.00;57128.34;10543219;28;20040;-72
2022/08/23 17:39:45;;;;;;;5.88;1.85;;;;;;;-147.53;100.00;57128.34;10547206;28;20502;-71
2022/08/23 17:44:47;;;;;;;7.18;1.50;;;;;;;-147.53;100.00;57128.34;10541442;28;20068;-72
2022/08/23 17:49:49;;;;;;;6.93;1.60;;;;;;;-147.53;100.00;57128.34;10546057;28;20217;-72
2022/08/23 17:54:53;;;;;;;3.47;1.50;;;;;;;-147.53;100.00;57128.34;10534146;28;20236;-72
2022/08/23 17:59:54;;;;;;;10.25;1.50;;;;;;;-147.53;100.00;57128.34;10508039;28;20047;-72
2022/08/23 18:04:56;;;;;;;4.55;1.48;;;;;;;-147.53;100.00;57128.34;10523266;28;20043;-74
2022/08/23 18:09:58;;;;;;;8.45;1.70;;;;;;;-147.53;100.00;57128.34;10537964;28;20062;-75
2022/08/23 18:15:03;;;;;;;5.45;1.70;;;;;;;-147.53;100.00;57128.34;10532734;28;20044;-76
2022/08/23 18:20:08;;;;;;;6.45;1.83;;;;;;;-147.53;100.00;57128.34;10522398;28;20048;-74
2022/08/23 18:25:12;;;;;;;5.38;1.50;;;;;;;-147.53;100.00;57128.34;10525141;28;20052;-74
2022/08/23 18:30:13;;;;;;;7.55;1.48;;;;;;;-147.53;100.00;57128.34;10534199;28;20457;-75
2022/08/23 18:35:16;;;;;;;3.05;1.40;;;;;;;-147.53;100.00;57128.34;10522977;28;20070;-76
2022/08/23 18:40:18;;;;;;;6.32;1.67;;;;;;;-147.53;100.00;57128.34;10539265;28;20044;-75
2022/08/23 18:45:20;;;;;;;8.55;1.50;;;;;;;-147.53;100.00;57128.34;10518160;28;20040;-75
2022/08/23 18:50:22;;;;;;;6.68;1.88;;;;;;;-147.53;100.00;57128.34;10544487;28;20060;-75
2022/08/23 18:55:24;;;;;;;5.50;1.40;;;;;;;-147.53;100.00;57128.34;10540843;28;20046;-75
2022/08/23 19:00:25;;;;;;;5.03;1.27;;;;;;;-147.53;100.00;57128.34;10548780;28;20050;-76
2022/08/23 19:05:27;;;;;;;3.55;1.17;;;;;;;-147.53;100.00;57128.34;10530021;28;20036;-75
2022/08/23 19:10:43;;;;;;;3.67;1.25;;;;;;;-147.53;100.00;57128.34;10542081;28;20051;-75
2022/08/23 19:15:44;;;;;;;6.97;1.40;;;;;;;-147.53;100.00;57128.34;10539710;28;20032;-75
2022/08/23 19:20:46;;;;;;;9.70;1.42;;;;;;;-147.53;100.00;57128.34;10545676;28;20044;-76
2022/08/23 19:25:47;;;;;;;3.17;1.20;;;;;;;-147.53;100.00;57128.34;10539564;28;20040;-75
2022/08/23 19:30:50;;;;;;;5.60;1.58;;;;;;;-147.53;100.00;57128.34;10545540;28;20044;-75
2022/08/23 19:35:52;;;;;;;4.57;1.30;;;;;;;-147.53;100.00;57128.34;10544012;28;20046;-75
2022/08/23 19:41:00;;;;;;;5.72;1.50;;;;;;;-147.53;100.00;57128.34;10530561;28;20395;-75
2022/08/23 19:46:14;;;;;;;4.63;1.17;;;;;;;-147.53;100.00;57128.34;10540041;28;20035;-75
2022/08/23 19:51:18;;;;;;;4.70;1.60;;;;;;;-147.53;100.00;57128.34;10550349;28;20054;-75
2022/08/23 19:56:20;;;;;;;9.98;1.30;;;;;;;-147.53;100.00;57128.34;10545663;28;20039;-75
2022/08/23 20:01:21;;;;;;;5.45;1.50;;;;;;;-147.53;100.00;57128.34;10526693;28;20043;-76
2022/08/23 20:06:23;;;;;;;2.92;1.30;;;;;;;-147.53;100.00;57128.34;10548248;28;20495;-75
2022/08/23 20:11:26;;;;;;;4.47;1.48;;;;;;;-147.53;100.00;57128.34;10542323;28;20040;-75
2022/08/23 20:16:31;;;;;;;4.25;1.30;;;;;;;-147.53;100.00;57128.34;10542030;28;20145;-75
2022/08/23 20:21:33;;;;;;;4.68;1.25;;;;;;;-147.53;100.00;57128.34;10524271;28;20127;-74
2022/08/23 20:26:40;;;;;;;4.78;1.40;;;;;;;-147.53;100.00;57128.34;10538655;28;20052;-75
2022/08/23 20:31:54;;;;;;;3.83;1.38;;;;;;;-147.53;100.00;57128.34;10530675;28;20046;-73
2022/08/23 20:36:55;;;;;;;9.02;1.33;;;;;;;-147.53;100.00;57128.34;10527598;28;20534;-75
2022/08/23 20:41:57;;;;;;;3.45;1.20;;;;;;;-147.53;100.00;57128.34;10539449;28;20119;-75
2022/08/23 20:46:59;;;;;;;5.70;1.15;;;;;;;-147.53;100.00;57128.34;10528172;28;20040;-75
2022/08/23 20:52:04;;;;;;;3.90;1.27;;;;;;;-147.53;100.00;57128.34;10528061;28;20568;-76
2022/08/23 20:57:06;;;;;;;4.93;1.15;;;;;;;-147.53;100.00;57128.34;10535423;28;20402;-75
2022/08/23 21:02:07;;;;;;;3.03;1.00;;;;;;;-147.53;100.00;57128.34;10543330;28;20043;-75
2022/08/23 21:07:09;;;;;;;5.63;1.30;;;;;;;-147.53;100.00;57128.34;10548300;28;20044;-75
2022/08/23 21:12:12;;;;;;;2.50;1.08;;;;;;;-147.53;100.00;57128.34;10541808;28;20040;-75
2022/08/23 21:17:13;;;;;;;3.15;1.10;;;;;;;-147.53;100.00;57128.34;10546160;28;20111;-75
2022/08/23 21:22:15;;;;;;;3.67;1.38;;;;;;;-147.53;100.00;57128.34;10543025;28;20094;-75
2022/08/23 21:27:17;;;;;;;3.75;1.75;;;;;;;-147.53;100.00;57128.34;10540248;28;20044;-75
2022/08/23 21:32:18;;;;;;;3.42;1.27;;;;;;;-147.53;100.00;57128.34;10529769;28;20123;-75
2022/08/23 21:37:20;;;;;;;8.32;1.25;;;;;;;-147.53;100.00;57128.34;10530560;28;20075;-75
2022/08/23 21:42:23;;;;;;;3.03;1.30;;;;;;;-147.53;100.00;57128.34;10527924;28;20047;-75
2022/08/23 21:47:25;;;;;;;4.43;1.38;;;;;;;-147.53;100.00;57128.34;10514601;28;20062;-75
2022/08/23 21:52:26;;;;;;;2.95;1.33;;;;;;;-147.53;100.00;57128.34;10542036;28;20039;-75
2022/08/23 21:57:28;;;;;;;5.82;1.40;;;;;;;-147.53;100.00;57128.34;10533992;28;20581;-74
2022/08/23 22:02:30;;;;;;;3.90;1.23;;;;;;;-147.53;100.00;57128.34;10542662;28;20096;-75
2022/08/23 22:07:33;;;;;;;8.27;1.40;;;;;;;-147.53;100.00;57128.34;10544583;28;20130;-75
2022/08/23 22:12:36;;;;;;;5.13;1.30;;;;;;;-147.53;100.00;57128.34;10541770;28;20063;-75
2022/08/23 22:17:38;;;;;;;5.03;1.40;;;;;;;-147.53;100.00;57128.34;10544845;28;20376;-75
2022/08/23 22:22:41;;;;;;;3.75;1.10;;;;;;;-147.53;100.00;57128.34;10515140;28;20043;-75
2022/08/23 22:27:46;;;;;;;2.10;1.20;;;;;;;-147.53;100.00;57128.34;10545903;28;20787;-74
2022/08/23 22:32:47;;;;;;;5.72;1.35;;;;;;;-147.53;100.00;57128.34;10535399;28;20048;-75
2022/08/23 22:37:49;;;;;;;3.97;1.30;;;;;;;-147.53;100.00;57128.34;10554388;28;20414;-75
2022/08/23 22:43:10;;;;;;;4.53;1.23;;;;;;;-147.53;100.00;57128.34;10551009;28;20048;-75
2022/08/23 22:48:12;;;;;;;2.20;1.30;;;;;;;-147.53;100.00;57128.34;10541743;28;20525;-74
2022/08/23 22:53:15;;;;;;;3.58;1.30;;;;;;;-147.53;100.00;57128.34;10550172;28;20134;-75
2022/08/23 22:58:16;;;;;;;4.97;1.17;;;;;;;-147.53;100.00;57128.34;10547625;28;20507;-75
2022/08/23 23:03:18;;;;;;;5.25;1.25;;;;;;;-147.53;100.00;57128.34;10544622;28;20071;-74
2022/08/23 23:08:28;;;;;;;3.53;1.30;;;;;;;-147.53;100.00;57128.34;10544422;28;20054;-75
2022/08/23 23:13:30;;;;;;;4.53;1.65;;;;;;;-147.53;100.00;57128.34;10548998;28;20043;-75
2022/08/23 23:18:33;;;;;;;2.90;1.30;;;;;;;-147.53;100.00;57128.34;10553395;28;20043;-75